Flight Track Log - Related Links

Times and Time Zones

All times are in EDT time to prevent confusion due to time zone crossing. See the CTL16 flight status page for this flight to view local times or setup timezone preferences in your user account.


Time Position Orientation Groundspeed Altitude Reporting Facility
EDT Latitude Longitude Course Direction KTS MPH feet Rate Location/Type
Fri 08:33:19 PM 39.3833 -84.4667 46° Northeast 110 127 2,000  Level Cincinnati TRACON
Fri 08:33:59 PM 39.3933 -84.4531 46° Northeast 115 132 2,600 800 Climbing Indianapolis Center
Fri 08:35:04 PM 39.4222 -84.4183 43° Northeast 130 150 3,400 810 Climbing Indianapolis Center
Fri 08:36:05 PM 39.4492 -84.3872 42° Northeast 129 148 4,300 829 Climbing Indianapolis Center
Fri 08:37:07 PM 39.4756 -84.3564 42° Northeast 128 147 5,100 767 Climbing Indianapolis Center
Fri 08:37:31 PM 39.4861 -84.3439 42° Northeast 127 146 5,400 689 Climbing Indianapolis Center
Fri 08:38:08 PM 39.5025 -84.3217 46° Northeast 131 151 5,800 727 Climbing Indianapolis Center
Fri 08:39:10 PM 39.5281 -84.2925 41° Northeast 127 146 6,600 567 Climbing Indianapolis Center
Fri 08:40:15 PM 39.5581 -84.2561 43° Northeast 129 148 7,000 195 Climbing Indianapolis Center
Fri 08:41:13 PM 39.5856 -84.2217 44° Northeast 147 169 7,000 50 Level Indianapolis Center
Fri 08:42:15 PM 39.6217 -84.1833 39° Northeast 162 186 7,100  Climbing Indianapolis Center
Fri 08:43:16 PM 39.6550 -84.1378 46° Northeast 170 196 7,000 146 Descending Indianapolis Center
Fri 08:44:18 PM 39.6894 -84.0967 43° Northeast 168 193 7,400 585 Climbing Indianapolis Center
Fri 08:45:19 PM 39.7203 -84.0578 44° Northeast 129 148 8,200 732 Climbing Indianapolis Center
Fri 08:46:21 PM 39.7439 -84.0261 46° Northeast 125 144 8,900 393 Climbing Indianapolis Center
Fri 08:47:21 PM 39.7717 -83.9911 44° Northeast 151 174 9,000 50 Climbing Indianapolis Center
Fri 08:48:22 PM 39.8042 -83.9492 45° Northeast 161 185 9,000  Level Indianapolis Center
Fri 08:49:23 PM 39.8367 -83.9072 45° Northeast 165 190 9,000 -49 Level Indianapolis Center
Fri 08:50:24 PM 39.8714 -83.8653 43° Northeast 165 190 8,900  Descending Indianapolis Center
Fri 08:51:18 PM 39.8992 -83.8281 46° Northeast 162 186 9,000 52 Climbing Indianapolis Center
Fri 08:52:19 PM 39.9317 -83.7861 45° Northeast 161 185 9,000  Level Indianapolis Center
Fri 08:53:20 PM 39.9642 -83.7467 43° Northeast 163 188 9,000  Level Indianapolis Center
Fri 08:54:15 PM 39.9942 -83.7069 45° Northeast 166 191 9,000  Level Indianapolis Center
Fri 08:54:33 PM 40.0017 -83.6975 44° Northeast 166 191 9,000  Level Indianapolis Center
Fri 08:55:22 PM 40.0311 -83.6597 44° Northeast 168 193 9,000  Level Indianapolis Center
Fri 08:56:22 PM 40.0656 -83.6203 41° Northeast 163 188 9,000 -47 Level Indianapolis Center
Fri 08:57:29 PM 40.1003 -83.5756 45° Northeast 163 188 8,900 -47 Descending Indianapolis Center
Fri 08:58:29 PM 40.1328 -83.5333 45° Northeast 160 184 8,900  Level Indianapolis Center
Fri 08:59:36 PM 40.1694 -83.4858 45° Northeast 162 186 8,900 52 Level Indianapolis Center
Fri 09:00:25 PM 40.1928 -83.4561 44° Northeast 155 178 9,000  Climbing Indianapolis Center
Fri 09:00:41 PM 40.1983 -83.4475 50° Northeast 158 182 8,900 -109 Descending Indianapolis Center
Fri 09:01:20 PM 40.2208 -83.4158 47° Northeast 162 186 8,900  Level Indianapolis Center
Fri 09:01:42 PM 40.2303 -83.4042 43° Northeast 162 186 8,900  Level Indianapolis Center
Fri 09:02:32 PM 40.2597 -83.3686 43° Northeast 154 177 8,900  Level Indianapolis Center
Fri 09:03:33 PM 40.2900 -83.3258 47° Northeast 156 180 8,900  Level Indianapolis Center
Fri 09:04:28 PM 40.3219 -83.2886 42° Northeast 165 190 8,900  Level Indianapolis Center
Fri 09:04:47 PM 40.3314 -83.2744 49° Northeast 161 185 8,900  Level Indianapolis Center
Fri 09:05:35 PM 40.3564 -83.2436 43° Northeast 163 188 8,900  Level Indianapolis Center
Fri 09:06:49 PM 40.3961 -83.1897 46° Northeast 163 188 8,900 44 Level Indianapolis Center
Fri 09:07:51 PM 40.4289 -83.1475 44° Northeast 161 185 9,000  Climbing Indianapolis Center
Fri 09:08:52 PM 40.4603 -83.1064 45° Northeast 157 181 8,900 -49 Descending Indianapolis Center
Fri 09:09:54 PM 40.4908 -83.0614 48° Northeast 162 186 8,900  Level Indianapolis Center
Fri 09:10:55 PM 40.5250 -83.0189 43° Northeast 163 188 8,900  Level Indianapolis Center
Fri 09:11:56 PM 40.5572 -82.9778 44° Northeast 161 185 8,900  Level Indianapolis Center
Fri 09:12:58 PM 40.5917 -82.9369 42° Northeast 164 189 8,900 -49 Level Indianapolis Center
Fri 09:13:59 PM 40.6225 -82.8922 48° Northeast 164 189 8,800 -49 Descending Indianapolis Center
Fri 09:15:01 PM 40.6561 -82.8483 45° Northeast 168 193 8,800 98 Level Indianapolis Center
Fri 09:16:02 PM 40.6864 -82.8039 48° Northeast 162 186 9,000 98 Climbing Indianapolis Center
Fri 09:17:03 PM 40.7181 -82.7614 45° Northeast 161 185 9,000 -49 Level Indianapolis Center
Fri 09:18:05 PM 40.7547 -82.7097 47° Northeast 163 188 8,900 -49 Descending Indianapolis Center
Fri 09:19:06 PM 40.7875 -82.6689 43° Northeast 161 185 8,900  Level Indianapolis Center
Fri 09:20:08 PM 40.8194 -82.6253 46° Northeast 163 188 8,900  Level Indianapolis Center

Login

Don't have an account? Register now (free) for customized features, flight alerts, and more!